createdAt,value
2022-09-11T00:01:01.427Z,21.72
2022-09-11T00:03:30.169Z,21.55
2022-09-11T00:05:57.266Z,21.36
2022-09-11T00:08:24.367Z,21.25
2022-09-11T00:10:51.394Z,21.67
2022-09-11T00:13:22.000Z,21.67
2022-09-11T00:15:51.051Z,21.70
2022-09-11T00:18:23.852Z,21.41
2022-09-11T00:20:53.340Z,21.87
2022-09-11T00:23:22.380Z,21.52
2022-09-11T00:25:49.841Z,20.86
2022-09-11T00:28:19.945Z,20.40
2022-09-11T00:30:48.651Z,20.82
2022-09-11T00:33:16.003Z,20.32
2022-09-11T00:35:43.075Z,20.84
2022-09-11T00:38:13.106Z,20.51
2022-09-11T00:40:47.045Z,21.14
2022-09-11T00:43:17.830Z,21.29
2022-09-11T00:45:46.354Z,21.26
2022-09-11T00:48:16.161Z,20.79
2022-09-11T00:50:44.174Z,20.32
2022-09-11T00:53:12.193Z,20.25
2022-09-11T00:55:42.173Z,20.25
2022-09-11T00:58:14.836Z,19.87
2022-09-11T01:00:43.840Z,19.67
2022-09-11T01:03:11.081Z,19.53
2022-09-11T01:05:41.312Z,19.56
2022-09-11T01:08:08.638Z,20.12
2022-09-11T01:10:56.620Z,19.65
2022-09-11T01:13:29.418Z,19.84
2022-09-11T01:16:25.376Z,20.22
2022-09-11T01:19:12.548Z,19.54
2022-09-11T01:21:52.560Z,20.13
2022-09-11T01:24:43.597Z,20.51
2022-09-11T01:27:32.161Z,20.49
2022-09-11T01:30:07.212Z,20.15
2022-09-11T01:33:03.416Z,20.54
2022-09-11T01:35:44.845Z,20.54
2022-09-11T01:38:31.852Z,20.31
2022-09-11T01:41:08.691Z,19.91
2022-09-11T01:43:51.513Z,20.13
2022-09-11T01:46:24.699Z,20.17
2022-09-11T01:48:58.563Z,20.10
2022-09-11T01:51:29.591Z,20.01
2022-09-11T01:53:59.440Z,20.00
2022-09-11T01:56:38.192Z,20.09
2022-09-11T01:59:09.947Z,19.33
2022-09-11T02:01:39.273Z,19.01
2022-09-11T02:04:25.572Z,19.53
2022-09-11T02:07:02.423Z,20.85
2022-09-11T02:09:35.064Z,21.01
2022-09-11T02:12:04.448Z,20.60
2022-09-11T02:14:40.803Z,20.84
2022-09-11T02:17:16.216Z,21.17
2022-09-11T02:19:43.921Z,20.46
2022-09-11T02:22:10.843Z,20.79
2022-09-11T02:24:37.926Z,20.76
2022-09-11T02:27:07.858Z,21.11
2022-09-11T02:29:34.780Z,20.05
2022-09-11T02:32:03.838Z,18.72
2022-09-11T02:34:35.055Z,19.06
2022-09-11T02:37:26.590Z,19.50
2022-09-11T02:40:15.289Z,20.56
2022-09-11T02:42:48.704Z,20.76
2022-09-11T02:45:24.349Z,20.08
2022-09-11T02:48:02.553Z,18.67
2022-09-11T02:50:40.063Z,17.93
2022-09-11T02:53:24.647Z,18.53
2022-09-11T02:56:13.311Z,19.21
2022-09-11T02:58:44.887Z,19.15
2022-09-11T03:01:12.124Z,18.65
2022-09-11T03:03:40.448Z,20.35
2022-09-11T03:06:10.738Z,20.98
2022-09-11T03:08:37.644Z,20.51
2022-09-11T03:11:04.603Z,20.82
2022-09-11T03:13:31.442Z,19.58
2022-09-11T03:16:01.285Z,19.03
2022-09-11T03:18:28.156Z,18.85
2022-09-11T03:20:55.012Z,18.49
2022-09-11T03:23:21.868Z,19.30
2022-09-11T03:25:48.764Z,18.14
2022-09-11T03:28:15.606Z,19.49
2022-09-11T03:30:42.561Z,18.92
2022-09-11T03:33:09.669Z,19.12
2022-09-11T03:35:36.499Z,19.11
2022-09-11T03:38:03.399Z,19.02
2022-09-11T03:40:30.378Z,19.50
2022-09-11T03:42:57.222Z,18.41
2022-09-11T03:45:24.172Z,18.66
2022-09-11T03:47:51.119Z,18.79
2022-09-11T03:50:18.050Z,19.52
2022-09-11T03:52:44.931Z,20.07
2022-09-11T03:55:12.112Z,20.65
2022-09-11T03:57:41.653Z,21.05
2022-09-11T04:00:10.188Z,21.13
2022-09-11T04:02:37.039Z,21.05
2022-09-11T04:05:04.650Z,21.36
2022-09-11T04:07:31.662Z,21.53
2022-09-11T04:09:58.765Z,20.62
2022-09-11T04:12:25.944Z,19.31
2022-09-11T04:14:52.838Z,18.37
2022-09-11T04:17:19.731Z,19.07
2022-09-11T04:19:46.576Z,18.93
2022-09-11T04:22:13.443Z,19.40
2022-09-11T04:24:40.448Z,19.68
2022-09-11T04:27:07.329Z,19.75
2022-09-11T04:29:34.432Z,19.87
2022-09-11T04:32:01.567Z,19.51
2022-09-11T04:34:28.434Z,19.74
2022-09-11T04:36:56.325Z,19.61
2022-09-11T04:39:23.411Z,19.47
2022-09-11T04:41:50.319Z,19.42
2022-09-11T04:44:17.210Z,19.60
2022-09-11T04:46:44.368Z,19.63
2022-09-11T04:49:11.814Z,20.02
2022-09-11T04:51:39.562Z,19.42
2022-09-11T04:54:07.069Z,18.73
2022-09-11T04:56:38.060Z,20.94
2022-09-11T04:59:09.717Z,21.55
2022-09-11T05:01:36.540Z,22.49
2022-09-11T05:04:03.481Z,22.35
2022-09-11T05:06:30.945Z,23.53
2022-09-11T05:09:04.794Z,23.17
2022-09-11T05:11:31.630Z,23.30
2022-09-11T05:14:01.320Z,23.66
2022-09-11T05:16:30.468Z,23.83
2022-09-11T05:18:57.826Z,24.23
2022-09-11T05:21:26.670Z,24.88
2022-09-11T05:23:55.638Z,25.45
2022-09-11T05:26:24.612Z,25.53
2022-09-11T05:28:55.567Z,25.22
2022-09-11T05:31:23.216Z,24.72
2022-09-11T05:33:50.143Z,24.23
2022-09-11T05:36:17.047Z,24.14
2022-09-11T05:38:44.477Z,24.21
2022-09-11T05:41:13.103Z,23.87
2022-09-11T05:43:41.263Z,23.99
2022-09-11T05:46:11.804Z,24.20
2022-09-11T05:48:38.911Z,24.06
2022-09-11T05:51:21.681Z,24.52
2022-09-11T05:53:52.333Z,25.35
2022-09-11T05:56:20.935Z,26.51
2022-09-11T05:58:49.107Z,27.53
2022-09-11T06:01:18.641Z,27.46
2022-09-11T06:03:47.651Z,26.30
2022-09-11T06:06:14.485Z,27.34
2022-09-11T06:08:44.840Z,26.81
2022-09-11T06:11:13.893Z,26.63
2022-09-11T06:13:46.562Z,25.82
2022-09-11T06:16:23.890Z,26.02
2022-09-11T06:18:51.952Z,26.04
2022-09-11T06:21:21.363Z,24.75
2022-09-11T06:23:49.798Z,23.19
2022-09-11T06:26:19.039Z,22.92
2022-09-11T06:28:47.576Z,22.06
2022-09-11T06:31:19.434Z,21.97
2022-09-11T06:33:47.355Z,23.11
2022-09-11T06:36:18.090Z,22.91
2022-09-11T06:38:45.237Z,23.21
2022-09-11T06:41:15.581Z,24.17
2022-09-11T06:43:43.268Z,24.68
2022-09-11T06:46:15.317Z,24.81
2022-09-11T06:48:43.908Z,26.59
2022-09-11T06:51:13.095Z,26.44
2022-09-11T06:53:41.303Z,26.42
2022-09-11T06:56:11.718Z,26.27
2022-09-11T06:58:40.116Z,25.65
2022-09-11T07:01:15.150Z,24.37
2022-09-11T07:03:46.565Z,25.18
2022-09-11T07:06:14.697Z,25.21
2022-09-11T07:08:42.068Z,25.30
2022-09-11T07:11:11.556Z,26.54
2022-09-11T07:13:39.491Z,27.25
2022-09-11T07:16:08.332Z,27.21
2022-09-11T07:18:36.502Z,27.21
2022-09-11T07:21:14.039Z,27.30
2022-09-11T07:23:42.390Z,26.98
2022-09-11T07:26:12.905Z,23.77
2022-09-11T07:28:40.343Z,25.57
2022-09-11T07:31:21.963Z,24.97
2022-09-11T07:33:49.863Z,25.01
2022-09-11T07:36:22.086Z,25.30
2022-09-11T07:38:50.121Z,25.69
2022-09-11T07:41:18.324Z,25.98
2022-09-11T07:43:50.885Z,23.93
2022-09-11T07:46:17.812Z,24.11
2022-09-11T07:48:44.995Z,24.65
2022-09-11T07:51:13.893Z,25.08
2022-09-11T07:53:43.197Z,26.08
2022-09-11T07:56:19.086Z,25.83
2022-09-11T07:58:46.364Z,24.45
2022-09-11T08:01:15.964Z,25.11
2022-09-11T08:03:43.304Z,25.05
2022-09-11T08:06:14.781Z,25.21
2022-09-11T08:08:43.655Z,24.77
2022-09-11T08:11:12.994Z,25.74
2022-09-11T08:13:40.615Z,26.15
2022-09-11T08:16:08.148Z,26.58
2022-09-11T08:18:35.778Z,25.89
2022-09-11T08:21:04.712Z,24.83
2022-09-11T08:23:32.469Z,25.27
2022-09-11T08:26:21.902Z,25.44
2022-09-11T08:28:50.611Z,25.78
2022-09-11T08:31:20.206Z,25.98
2022-09-11T08:33:48.307Z,24.63
2022-09-11T08:36:15.488Z,25.20
2022-09-11T08:38:43.838Z,25.27
2022-09-11T08:41:50.064Z,24.22
2022-09-11T08:44:19.619Z,25.65
2022-09-11T08:46:49.683Z,24.91
2022-09-11T08:49:19.818Z,25.36
2022-09-11T08:51:49.030Z,25.14
2022-09-11T08:54:27.321Z,24.95
2022-09-11T08:57:20.734Z,25.12
2022-09-11T09:00:12.261Z,24.98
2022-09-11T09:02:57.800Z,25.08
2022-09-11T09:05:50.341Z,26.29
2022-09-11T09:08:20.260Z,24.73
2022-09-11T09:10:53.232Z,25.07
2022-09-11T09:13:32.976Z,25.31
2022-09-11T09:16:02.855Z,25.53
2022-09-11T09:18:34.345Z,25.53
2022-09-11T09:21:10.421Z,25.43
2022-09-11T09:24:03.997Z,25.60
2022-09-11T09:26:38.433Z,25.32
2022-09-11T09:29:10.727Z,26.02
2022-09-11T09:31:39.233Z,26.19
2022-09-11T09:34:19.966Z,25.14
2022-09-11T09:36:52.213Z,24.59
2022-09-11T09:39:19.945Z,24.36
2022-09-11T09:41:52.763Z,24.87
2022-09-11T09:44:38.438Z,24.52
2022-09-11T09:47:08.827Z,24.44
2022-09-11T09:49:37.624Z,24.86
2022-09-11T09:52:19.608Z,24.88
2022-09-11T09:55:01.882Z,25.09
2022-09-11T09:57:36.926Z,25.25
2022-09-11T10:00:14.854Z,25.36
2022-09-11T10:02:54.936Z,25.31
2022-09-11T10:05:33.426Z,25.03
2022-09-11T10:08:05.950Z,24.96
2022-09-11T10:10:36.550Z,24.94
2022-09-11T10:13:19.901Z,25.46
2022-09-11T10:15:50.025Z,25.60
2022-09-11T10:18:29.859Z,25.11
2022-09-11T10:21:12.190Z,26.91
2022-09-11T10:23:48.450Z,27.57
2022-09-11T10:26:39.886Z,27.79
2022-09-11T10:29:16.216Z,27.87
2022-09-11T10:31:49.994Z,27.50
2022-09-11T10:34:20.337Z,27.27
2022-09-11T10:37:00.908Z,27.32
2022-09-11T10:39:30.620Z,26.94
2022-09-11T10:41:59.934Z,26.41
2022-09-11T10:44:30.880Z,25.74
2022-09-11T10:47:17.971Z,25.88
2022-09-11T10:49:45.781Z,25.76
2022-09-11T10:52:12.592Z,25.00
2022-09-11T10:54:48.447Z,24.68
2022-09-11T10:57:33.699Z,25.18
2022-09-11T11:00:23.003Z,26.20
2022-09-11T11:02:59.683Z,26.05
2022-09-11T11:05:45.196Z,26.09
2022-09-11T11:08:33.872Z,26.02
2022-09-11T11:11:25.604Z,26.34
2022-09-11T11:13:58.162Z,26.41
2022-09-11T11:16:44.251Z,25.96
2022-09-11T11:19:41.133Z,25.88
2022-09-11T11:22:21.345Z,24.77
2022-09-11T11:25:06.081Z,24.16
2022-09-11T11:27:59.469Z,24.18
2022-09-11T11:31:05.850Z,24.29
2022-09-11T11:34:03.544Z,23.82
2022-09-11T11:37:11.896Z,23.65
2022-09-11T11:39:43.734Z,23.79
2022-09-11T11:42:17.919Z,23.93
2022-09-11T11:44:51.865Z,23.84
2022-09-11T11:47:25.544Z,24.48
2022-09-11T11:50:08.897Z,24.14
2022-09-11T11:52:43.552Z,24.23
2022-09-11T11:55:20.858Z,24.16
2022-09-11T11:57:55.688Z,24.11
2022-09-11T12:00:22.682Z,24.07
2022-09-11T12:02:56.869Z,24.34
2022-09-11T12:05:26.965Z,23.91
2022-09-11T12:07:53.930Z,23.63
2022-09-11T12:10:29.579Z,23.70
2022-09-11T12:13:00.048Z,24.10
2022-09-11T12:15:32.368Z,24.34
2022-09-11T12:18:07.497Z,23.85
2022-09-11T12:20:42.183Z,24.03
2022-09-11T12:23:32.050Z,24.21
2022-09-11T12:26:16.995Z,24.73
2022-09-11T12:28:44.024Z,24.90
2022-09-11T12:31:16.188Z,25.07
2022-09-11T12:33:47.480Z,24.96
2022-09-11T12:36:17.135Z,24.87
2022-09-11T12:38:50.384Z,25.39
2022-09-11T12:41:34.516Z,25.68
2022-09-11T12:44:03.232Z,26.45
2022-09-11T12:46:30.035Z,26.29
2022-09-11T12:49:21.448Z,25.94
2022-09-11T12:51:55.253Z,25.42
2022-09-11T12:54:28.332Z,24.98
2022-09-11T12:57:07.106Z,25.16
2022-09-11T12:59:38.720Z,25.42
2022-09-11T13:02:20.524Z,25.42
2022-09-11T13:04:48.842Z,25.36
2022-09-11T13:07:43.309Z,25.58
2022-09-11T13:10:30.555Z,25.43
2022-09-11T13:12:58.841Z,25.23
2022-09-11T13:15:41.229Z,25.52
2022-09-11T13:18:31.205Z,25.53
2022-09-11T13:21:26.381Z,25.83
2022-09-11T13:23:53.644Z,25.13
2022-09-11T13:26:25.845Z,25.33
2022-09-11T13:28:55.474Z,25.41
2022-09-11T13:31:42.518Z,25.82
2022-09-11T13:34:14.441Z,25.02
2022-09-11T13:36:41.314Z,24.66
2022-09-11T13:39:08.952Z,23.84
2022-09-11T13:41:38.919Z,23.74
2022-09-11T13:44:11.551Z,24.11
2022-09-11T13:46:50.491Z,24.38
2022-09-11T13:49:36.242Z,24.58
2022-09-11T13:52:06.917Z,25.39
2022-09-11T13:54:38.427Z,25.48
2022-09-11T13:57:13.299Z,26.07
2022-09-11T13:59:52.106Z,25.84
2022-09-11T14:02:44.566Z,25.67
2022-09-11T14:05:11.496Z,26.57
2022-09-11T14:08:07.431Z,25.13
2022-09-11T14:10:44.562Z,24.38
2022-09-11T14:13:35.513Z,23.99
2022-09-11T14:16:08.772Z,24.47
2022-09-11T14:19:00.439Z,23.77
2022-09-11T14:21:38.845Z,23.67
2022-09-11T14:24:34.291Z,24.45
2022-09-11T14:27:02.499Z,25.18
2022-09-11T14:29:31.712Z,24.03
2022-09-11T14:32:33.991Z,25.16
2022-09-11T14:35:01.469Z,24.14
2022-09-11T14:37:30.294Z,25.11
2022-09-11T14:40:03.250Z,24.91
2022-09-11T14:42:32.882Z,23.61
2022-09-11T14:45:00.142Z,24.06
2022-09-11T14:47:28.942Z,25.15
2022-09-11T14:49:57.671Z,25.09
2022-09-11T14:52:27.086Z,25.06
2022-09-11T14:54:54.348Z,24.67
2022-09-11T14:57:26.031Z,24.89
2022-09-11T14:59:53.191Z,24.50
2022-09-11T15:02:22.375Z,24.40
2022-09-11T15:04:50.316Z,24.56
2022-09-11T15:07:18.993Z,24.01
2022-09-11T15:09:46.724Z,24.49
2022-09-11T15:12:14.577Z,23.82
2022-09-11T15:14:58.833Z,24.77
2022-09-11T15:17:28.795Z,24.68
2022-09-11T15:19:55.663Z,23.60
2022-09-11T15:22:22.530Z,23.29
2022-09-11T15:24:49.974Z,23.84
2022-09-11T15:27:19.322Z,23.72
2022-09-11T15:29:46.550Z,24.05
2022-09-11T15:32:14.592Z,24.36
2022-09-11T15:34:43.672Z,24.10
2022-09-11T15:37:11.055Z,24.31
2022-09-11T15:39:37.975Z,24.32
2022-09-11T15:42:06.400Z,24.42
2022-09-11T15:44:35.227Z,23.97
2022-09-11T15:47:04.294Z,24.04
2022-09-11T15:49:31.920Z,24.64
2022-09-11T15:51:59.849Z,24.48
2022-09-11T15:54:27.461Z,24.35
2022-09-11T15:56:55.241Z,23.81
2022-09-11T15:59:22.520Z,23.70
2022-09-11T16:01:49.762Z,23.52
2022-09-11T16:04:19.436Z,24.07
2022-09-11T16:06:48.534Z,23.62
2022-09-11T16:09:27.158Z,24.00
2022-09-11T16:11:54.866Z,23.96
2022-09-11T16:14:24.433Z,24.09
2022-09-11T16:16:51.876Z,23.75
2022-09-11T16:19:21.704Z,23.44
2022-09-11T16:21:49.401Z,23.78
2022-09-11T16:24:16.871Z,23.59
2022-09-11T16:26:44.516Z,22.88
2022-09-11T16:29:12.948Z,23.51
2022-09-11T16:31:40.323Z,23.28
2022-09-11T16:34:07.963Z,23.57
2022-09-11T16:36:42.014Z,23.82
2022-09-11T16:39:13.682Z,23.40
2022-09-11T16:41:40.616Z,22.96
2022-09-11T16:44:09.072Z,22.47
2022-09-11T16:46:37.329Z,22.73
2022-09-11T16:49:06.311Z,22.12
2022-09-11T16:51:34.375Z,22.77
2022-09-11T16:54:02.236Z,23.84
2022-09-11T16:56:29.090Z,23.20
2022-09-11T16:58:55.992Z,22.20
2022-09-11T17:01:24.705Z,22.14
2022-09-11T17:03:54.808Z,22.80
2022-09-11T17:06:23.771Z,22.86
2022-09-11T17:08:51.363Z,22.80
2022-09-11T17:11:20.902Z,23.20
2022-09-11T17:13:48.583Z,23.48
2022-09-11T17:16:21.095Z,22.10
2022-09-11T17:18:49.343Z,23.58
2022-09-11T17:21:16.594Z,24.05
2022-09-11T17:23:43.803Z,23.55
2022-09-11T17:26:12.962Z,23.08
2022-09-11T17:28:40.753Z,23.79
2022-09-11T17:31:09.873Z,23.83
2022-09-11T17:33:38.663Z,23.84
2022-09-11T17:36:06.692Z,23.51
2022-09-11T17:38:34.140Z,24.10
2022-09-11T17:41:04.281Z,23.44
2022-09-11T17:43:32.738Z,23.06
2022-09-11T17:46:13.157Z,23.54
2022-09-11T17:48:40.333Z,22.98
2022-09-11T17:51:12.963Z,22.30
2022-09-11T17:53:41.660Z,22.61
2022-09-11T17:56:11.712Z,22.83
2022-09-11T17:58:38.732Z,22.48
2022-09-11T18:01:06.365Z,22.47
2022-09-11T18:03:34.316Z,21.73
2022-09-11T18:06:02.770Z,21.87
2022-09-11T18:08:31.409Z,22.29
2022-09-11T18:11:02.160Z,22.03
2022-09-11T18:13:31.808Z,22.34
2022-09-11T18:15:58.760Z,22.19
2022-09-11T18:18:25.759Z,22.35
2022-09-11T18:20:56.112Z,21.82
2022-09-11T18:23:23.788Z,21.47
2022-09-11T18:25:51.805Z,22.00
2022-09-11T18:28:20.149Z,22.16
2022-09-11T18:30:47.567Z,22.08
2022-09-11T18:33:16.827Z,22.46
2022-09-11T18:35:45.828Z,22.40
2022-09-11T18:38:13.029Z,21.66
2022-09-11T18:40:39.999Z,20.75
2022-09-11T18:43:08.970Z,21.23
2022-09-11T18:45:36.561Z,21.03
2022-09-11T18:48:04.915Z,20.85
2022-09-11T18:50:31.838Z,20.75
2022-09-11T18:53:00.171Z,20.36
2022-09-11T18:55:29.008Z,21.03
2022-09-11T18:57:56.395Z,21.33
2022-09-11T19:00:23.288Z,20.22
2022-09-11T19:02:53.113Z,19.22
2022-09-11T19:05:20.404Z,19.54
2022-09-11T19:07:48.290Z,19.59
2022-09-11T19:10:15.218Z,19.86
2022-09-11T19:12:42.083Z,19.29
2022-09-11T19:15:09.672Z,19.44
2022-09-11T19:17:38.219Z,20.88
2022-09-11T19:20:07.851Z,21.32
2022-09-11T19:22:35.069Z,21.51
2022-09-11T19:25:02.112Z,21.50
2022-09-11T19:27:31.836Z,21.25
2022-09-11T19:29:59.945Z,20.43
2022-09-11T19:32:28.222Z,19.78
2022-09-11T19:34:55.319Z,20.26
2022-09-11T19:37:22.333Z,20.79
2022-09-11T19:39:50.987Z,20.37
2022-09-11T19:42:18.339Z,20.29
2022-09-11T19:44:45.671Z,19.74
2022-09-11T19:47:12.655Z,19.89
2022-09-11T19:49:39.592Z,19.81
2022-09-11T19:52:08.218Z,20.43
2022-09-11T19:54:35.602Z,19.48
2022-09-11T19:57:02.702Z,19.63
2022-09-11T19:59:29.546Z,19.50
2022-09-11T20:01:56.541Z,19.54
2022-09-11T20:04:24.065Z,19.43
2022-09-11T20:09:31.021Z,19.23
2022-09-11T20:12:00.524Z,19.21
2022-09-11T20:14:28.314Z,19.40
2022-09-11T20:16:55.202Z,19.87
2022-09-11T20:19:22.096Z,19.56
2022-09-11T20:21:49.403Z,19.69
2022-09-11T20:24:16.272Z,19.33
2022-09-11T20:26:43.375Z,19.52
2022-09-11T20:29:13.599Z,19.77
2022-09-11T20:31:47.040Z,19.91
2022-09-11T20:34:17.906Z,19.23
2022-09-11T20:36:44.916Z,19.31
2022-09-11T20:39:13.830Z,19.45
2022-09-11T20:41:40.935Z,18.86
2022-09-11T20:44:07.819Z,18.82
2022-09-11T20:46:34.799Z,18.63
2022-09-11T20:49:03.159Z,18.90
2022-09-11T20:51:30.480Z,19.08
2022-09-11T20:53:57.425Z,19.12
2022-09-11T20:56:24.423Z,18.71
2022-09-11T20:58:52.133Z,19.28
2022-09-11T21:01:21.604Z,19.30
2022-09-11T21:03:53.854Z,19.35
2022-09-11T21:06:25.652Z,19.48
2022-09-11T21:09:00.677Z,18.87
2022-09-11T21:11:28.862Z,18.70
2022-09-11T21:13:56.131Z,19.04
2022-09-11T21:16:23.294Z,19.51
2022-09-11T21:18:53.193Z,19.59
2022-09-11T21:21:21.218Z,19.53
2022-09-11T21:23:48.398Z,19.40
2022-09-11T21:26:17.002Z,19.35
2022-09-11T21:28:44.482Z,19.45
2022-09-11T21:31:11.662Z,19.65
2022-09-11T21:33:38.626Z,19.73
2022-09-11T21:36:06.879Z,19.85
2022-09-11T21:38:33.748Z,19.88
2022-09-11T21:41:02.393Z,19.57
2022-09-11T21:43:29.359Z,19.43
2022-09-11T21:45:56.614Z,19.43
2022-09-11T21:48:23.786Z,19.81
2022-09-11T21:50:50.672Z,19.49
2022-09-11T21:53:17.704Z,19.73
2022-09-11T21:55:46.073Z,19.97
2022-09-11T21:58:18.772Z,19.45
2022-09-11T22:00:48.185Z,19.23
2022-09-11T22:03:17.271Z,19.17
2022-09-11T22:05:45.229Z,19.24
2022-09-11T22:08:14.815Z,19.58
2022-09-11T22:10:45.342Z,19.85
2022-09-11T22:13:12.326Z,19.36
2022-09-11T22:15:40.905Z,19.48
2022-09-11T22:18:08.267Z,19.30
2022-09-11T22:20:37.223Z,18.82
2022-09-11T22:23:04.179Z,18.15
2022-09-11T22:25:31.168Z,18.38
2022-09-11T22:27:58.062Z,19.47
2022-09-11T22:30:24.941Z,19.39
2022-09-11T22:32:51.775Z,19.47
2022-09-11T22:35:18.881Z,19.49
2022-09-11T22:37:45.903Z,19.63
2022-09-11T22:40:12.821Z,19.87
2022-09-11T22:42:40.282Z,19.97
2022-09-11T22:45:08.123Z,19.61
2022-09-11T22:47:35.651Z,20.17
2022-09-11T22:50:02.589Z,19.81
2022-09-11T22:52:30.161Z,19.46
2022-09-11T22:54:57.063Z,19.72
2022-09-11T22:57:25.937Z,19.42
2022-09-11T22:59:56.243Z,18.81
2022-09-11T23:02:23.174Z,19.69
2022-09-11T23:05:08.519Z,18.77
2022-09-11T23:07:35.373Z,19.30
2022-09-11T23:10:02.403Z,19.58
2022-09-11T23:12:29.264Z,20.00
2022-09-11T23:14:56.994Z,19.80
2022-09-11T23:17:23.840Z,20.02
2022-09-11T23:19:50.688Z,19.82
2022-09-11T23:22:17.543Z,19.05
2022-09-11T23:24:44.403Z,19.12
2022-09-11T23:27:11.267Z,19.61
2022-09-11T23:29:38.122Z,18.51
2022-09-11T23:32:05.134Z,18.66
2022-09-11T23:34:32.072Z,18.81
2022-09-11T23:36:58.918Z,18.92
2022-09-11T23:39:25.813Z,17.79
2022-09-11T23:41:52.791Z,17.92
2022-09-11T23:44:19.699Z,18.18
2022-09-11T23:46:46.576Z,17.93
2022-09-11T23:49:13.502Z,18.04
2022-09-11T23:51:41.633Z,18.51
2022-09-11T23:54:08.654Z,17.69
2022-09-11T23:56:35.501Z,17.44
2022-09-11T23:59:02.396Z,17.32
